createdAt,value
2019-05-20T00:01:26.758Z,2.53
2019-05-20T00:03:57.889Z,2.23
2019-05-20T00:06:28.372Z,1.50
2019-05-20T00:08:59.141Z,1.87
2019-05-20T00:11:29.239Z,2.57
2019-05-20T00:13:59.752Z,1.60
2019-05-20T00:16:31.177Z,1.67
2019-05-20T00:19:02.281Z,2.30
2019-05-20T00:21:32.443Z,2.67
2019-05-20T00:24:03.390Z,2.53
2019-05-20T00:26:34.275Z,2.33
2019-05-20T00:29:04.993Z,2.00
2019-05-20T00:31:36.013Z,2.23
2019-05-20T00:34:06.761Z,3.20
2019-05-20T00:36:37.085Z,2.13
2019-05-20T00:39:18.801Z,2.80
2019-05-20T00:41:51.453Z,2.50
2019-05-20T00:44:22.579Z,2.77
2019-05-20T00:46:52.825Z,3.03
2019-05-20T00:49:23.334Z,1.43
2019-05-20T00:51:54.415Z,2.43
2019-05-20T00:54:25.538Z,2.50
2019-05-20T00:56:56.514Z,1.73
2019-05-20T00:59:28.658Z,2.80
2019-05-20T01:01:59.169Z,10.30
2019-05-20T01:04:29.956Z,2.70
2019-05-20T01:07:00.478Z,23.33
2019-05-20T01:09:30.539Z,2.73
2019-05-20T01:12:01.546Z,3.70
2019-05-20T01:14:32.504Z,2.00
2019-05-20T01:17:03.452Z,2.17
2019-05-20T01:19:34.538Z,2.67
2019-05-20T01:22:05.274Z,3.57
2019-05-20T01:24:36.476Z,2.60
2019-05-20T01:27:08.432Z,1.93
2019-05-20T01:29:39.175Z,4.30
2019-05-20T01:32:10.126Z,2.60
2019-05-20T01:34:41.276Z,2.43
2019-05-20T01:37:12.007Z,2.17
2019-05-20T01:39:42.516Z,1.90
2019-05-20T01:42:12.818Z,2.37
2019-05-20T01:44:43.429Z,2.47
2019-05-20T01:47:13.738Z,4.03
2019-05-20T01:49:44.004Z,3.77
2019-05-20T01:52:14.803Z,2.60
2019-05-20T01:54:44.934Z,4.40
2019-05-20T01:57:17.519Z,1.63
2019-05-20T01:59:48.138Z,1.97
2019-05-20T02:02:18.416Z,2.30
2019-05-20T02:04:49.113Z,2.90
2019-05-20T02:07:20.462Z,2.70
2019-05-20T02:09:51.399Z,3.07
2019-05-20T02:12:21.938Z,3.10
2019-05-20T02:14:58.413Z,2.73
2019-05-20T02:17:28.970Z,3.17
2019-05-20T02:19:59.687Z,3.00
2019-05-20T02:22:30.219Z,3.80
2019-05-20T02:25:01.359Z,2.60
2019-05-20T02:27:32.715Z,4.90
2019-05-20T02:30:03.837Z,3.20
2019-05-20T02:32:34.751Z,6.80
2019-05-20T02:35:05.348Z,4.10
2019-05-20T02:37:37.117Z,4.40
2019-05-20T02:40:08.833Z,5.60
2019-05-20T02:42:39.973Z,8.93
2019-05-20T02:45:12.192Z,5.10
2019-05-20T02:47:42.931Z,8.13
2019-05-20T02:50:13.780Z,7.87
2019-05-20T02:52:44.227Z,5.27
2019-05-20T02:55:16.721Z,6.30
2019-05-20T02:57:48.136Z,7.23
2019-05-20T03:00:19.275Z,8.13
2019-05-20T03:02:50.167Z,9.47
2019-05-20T03:05:20.684Z,7.27
2019-05-20T03:07:51.917Z,12.00
2019-05-20T03:10:22.643Z,10.03
2019-05-20T03:12:53.589Z,6.90
2019-05-20T03:15:24.332Z,9.83
2019-05-20T03:17:55.684Z,9.90
2019-05-20T03:20:25.747Z,11.40
2019-05-20T03:22:56.697Z,6.87
2019-05-20T03:25:27.488Z,9.37
2019-05-20T03:27:57.616Z,8.23
2019-05-20T03:30:28.358Z,11.03
2019-05-20T03:32:59.098Z,11.40
2019-05-20T03:35:29.637Z,12.53
2019-05-20T03:38:00.565Z,11.10
2019-05-20T03:40:31.179Z,9.00
2019-05-20T03:43:02.249Z,18.60
2019-05-20T03:45:33.195Z,14.07
2019-05-20T03:48:03.694Z,11.63
2019-05-20T03:50:34.577Z,11.30
2019-05-20T03:53:04.797Z,11.70
2019-05-20T03:55:35.583Z,13.67
2019-05-20T03:58:05.744Z,11.10
2019-05-20T04:00:53.753Z,16.50
2019-05-20T04:03:24.973Z,12.40
2019-05-20T04:05:56.102Z,19.83
2019-05-20T04:08:26.814Z,16.73
2019-05-20T04:10:57.584Z,20.70
2019-05-20T04:13:28.470Z,14.97
2019-05-20T04:15:59.270Z,18.70
2019-05-20T04:18:29.607Z,23.97
2019-05-20T04:21:00.753Z,16.43
2019-05-20T04:23:31.423Z,15.60
2019-05-20T04:26:02.006Z,16.83
2019-05-20T04:28:32.668Z,15.00
2019-05-20T04:31:06.557Z,15.77
2019-05-20T04:33:37.461Z,14.83
2019-05-20T04:36:08.642Z,14.10
2019-05-20T04:38:39.002Z,20.30
2019-05-20T04:41:09.919Z,22.30
2019-05-20T04:43:40.866Z,20.70
2019-05-20T04:46:12.833Z,21.77
2019-05-20T04:48:43.980Z,18.47
2019-05-20T04:51:15.115Z,15.93
2019-05-20T04:53:46.699Z,18.47
2019-05-20T04:56:17.425Z,13.00
2019-05-20T04:58:48.310Z,17.07
2019-05-20T05:01:19.540Z,22.83
2019-05-20T05:03:50.263Z,13.03
2019-05-20T05:06:21.200Z,19.03
2019-05-20T05:08:51.530Z,13.47
2019-05-20T05:11:22.408Z,15.70
2019-05-20T05:13:54.534Z,13.40
2019-05-20T05:16:25.180Z,17.17
2019-05-20T05:18:55.392Z,17.57
2019-05-20T05:21:26.047Z,23.20
2019-05-20T05:23:59.330Z,25.40
2019-05-20T05:26:29.769Z,17.00
2019-05-20T05:29:00.590Z,21.20
2019-05-20T05:31:31.452Z,13.30
2019-05-20T05:34:01.807Z,14.93
2019-05-20T05:36:32.943Z,21.83
2019-05-20T05:39:04.815Z,19.50
2019-05-20T05:41:35.440Z,25.73
2019-05-20T05:44:05.712Z,14.73
2019-05-20T05:46:36.899Z,19.07
2019-05-20T05:49:07.575Z,17.00
2019-05-20T05:51:38.395Z,17.93
2019-05-20T05:54:09.294Z,21.30
2019-05-20T05:56:42.293Z,22.87
2019-05-20T05:59:13.208Z,18.80
2019-05-20T06:01:44.143Z,16.80
2019-05-20T06:04:14.284Z,17.03
2019-05-20T06:06:45.491Z,18.37
2019-05-20T06:09:16.165Z,23.80
2019-05-20T06:11:47.365Z,20.47
2019-05-20T06:14:18.316Z,18.00
2019-05-20T06:16:48.841Z,18.13
2019-05-20T06:19:19.582Z,23.73
2019-05-20T06:21:50.061Z,25.50
2019-05-20T06:24:21.469Z,28.30
2019-05-20T06:26:52.402Z,15.60
2019-05-20T06:29:22.685Z,22.40
2019-05-20T06:31:53.863Z,24.17
2019-05-20T06:34:25.327Z,16.70
2019-05-20T06:36:58.141Z,18.53
2019-05-20T06:39:29.174Z,16.07
2019-05-20T06:41:59.646Z,26.67
2019-05-20T06:44:30.225Z,24.33
2019-05-20T06:47:01.185Z,19.40
2019-05-20T06:49:32.019Z,23.63
2019-05-20T06:52:02.456Z,16.37
2019-05-20T06:54:32.992Z,20.10
2019-05-20T06:57:04.346Z,24.70
2019-05-20T06:59:35.083Z,20.07
2019-05-20T07:02:06.643Z,17.03
2019-05-20T07:04:37.391Z,24.67
2019-05-20T07:07:19.909Z,25.30
2019-05-20T07:09:39.550Z,25.70
2019-05-20T07:12:10.822Z,17.20
2019-05-20T07:14:41.939Z,23.27
2019-05-20T07:17:12.480Z,16.20
2019-05-20T07:19:43.241Z,13.50
2019-05-20T07:22:14.409Z,20.00
2019-05-20T07:24:45.090Z,19.40
2019-05-20T07:27:16.904Z,14.63
2019-05-20T07:29:47.489Z,24.93
2019-05-20T07:32:18.782Z,18.67
2019-05-20T07:34:50.138Z,24.27
2019-05-20T07:37:22.345Z,19.43
2019-05-20T07:39:53.021Z,17.83
2019-05-20T07:42:23.782Z,19.77
2019-05-20T07:44:54.470Z,25.63
2019-05-20T07:47:25.475Z,21.33
2019-05-20T07:49:57.445Z,22.93
2019-05-20T07:52:29.408Z,18.77
2019-05-20T07:55:01.326Z,15.67
2019-05-20T07:57:35.603Z,18.90
2019-05-20T08:00:06.518Z,19.73
2019-05-20T08:02:37.613Z,19.97
2019-05-20T08:05:09.236Z,23.30
2019-05-20T08:07:51.945Z,13.93
2019-05-20T08:10:14.768Z,24.27
2019-05-20T08:12:45.555Z,11.07
2019-05-20T08:15:17.680Z,15.50
2019-05-20T08:17:48.278Z,12.70
2019-05-20T08:20:19.061Z,8.37
2019-05-20T08:22:50.502Z,10.07
2019-05-20T08:25:22.930Z,10.97
2019-05-20T08:27:53.287Z,10.03
2019-05-20T08:30:37.316Z,10.33
2019-05-20T08:33:09.402Z,7.50
2019-05-20T08:35:40.640Z,8.97
2019-05-20T08:38:12.794Z,9.80
2019-05-20T08:40:47.829Z,8.57
2019-05-20T08:43:16.741Z,8.80
2019-05-20T08:45:48.086Z,12.10
2019-05-20T08:48:18.721Z,7.20
2019-05-20T08:50:50.180Z,6.60
2019-05-20T08:53:20.913Z,6.27
2019-05-20T08:55:51.810Z,9.43
2019-05-20T08:58:22.601Z,7.40
2019-05-20T09:00:53.770Z,10.60
2019-05-20T09:03:24.497Z,11.80
2019-05-20T09:05:55.378Z,9.50
2019-05-20T09:08:26.586Z,10.30
2019-05-20T09:10:57.723Z,7.63
2019-05-20T09:13:29.086Z,10.10
2019-05-20T09:16:00.448Z,13.47
2019-05-20T09:18:30.582Z,9.77
2019-05-20T09:21:01.706Z,12.43
2019-05-20T09:23:32.844Z,12.33
2019-05-20T09:26:04.011Z,7.83
2019-05-20T09:28:34.956Z,10.70
2019-05-20T09:31:06.091Z,10.30
2019-05-20T09:33:38.467Z,8.97
2019-05-20T09:36:10.224Z,13.13
2019-05-20T09:38:40.349Z,16.13
2019-05-20T09:41:10.486Z,10.30
2019-05-20T09:43:41.033Z,10.27
2019-05-20T09:46:12.223Z,11.00
2019-05-20T09:48:43.029Z,10.97
2019-05-20T09:51:13.169Z,11.47
2019-05-20T09:53:44.165Z,9.60
2019-05-20T09:56:15.123Z,9.73
2019-05-20T09:58:46.084Z,9.07
2019-05-20T10:01:18.031Z,10.57
2019-05-20T10:03:48.507Z,13.03
2019-05-20T10:06:19.725Z,9.97
2019-05-20T10:08:49.982Z,6.93
2019-05-20T10:11:20.781Z,5.33
2019-05-20T10:13:51.520Z,7.70
2019-05-20T10:16:22.259Z,10.13
2019-05-20T10:18:55.348Z,6.90
2019-05-20T10:21:25.783Z,9.33
2019-05-20T10:23:56.738Z,8.93
2019-05-20T10:26:27.285Z,9.17
2019-05-20T10:28:57.920Z,11.17
2019-05-20T10:31:29.381Z,12.33
2019-05-20T10:34:01.938Z,11.90
2019-05-20T10:36:33.490Z,8.97
2019-05-20T10:39:07.837Z,13.30
2019-05-20T10:41:38.274Z,16.50
2019-05-20T10:44:09.386Z,12.00
2019-05-20T10:46:39.464Z,9.73
2019-05-20T10:49:09.862Z,14.30
2019-05-20T10:51:41.194Z,13.50
2019-05-20T10:54:11.933Z,15.23
2019-05-20T10:56:42.013Z,10.10
2019-05-20T10:59:12.945Z,9.97
2019-05-20T11:01:43.324Z,14.20
2019-05-20T11:04:14.686Z,11.00
2019-05-20T11:06:45.575Z,15.00
2019-05-20T11:09:17.366Z,12.50
2019-05-20T11:11:48.124Z,9.27
2019-05-20T11:14:18.457Z,13.40
2019-05-20T11:16:49.402Z,11.83
2019-05-20T11:19:20.514Z,11.17
2019-05-20T11:21:51.921Z,14.47
2019-05-20T11:24:23.050Z,14.10
2019-05-20T11:26:53.786Z,7.90
2019-05-20T11:29:24.690Z,11.53
2019-05-20T11:31:54.830Z,12.13
2019-05-20T11:34:25.397Z,13.37
2019-05-20T11:36:56.117Z,8.03
2019-05-20T11:39:33.127Z,10.40
2019-05-20T11:41:59.042Z,11.53
2019-05-20T11:44:29.586Z,11.97
2019-05-20T11:47:00.100Z,10.20
2019-05-20T11:49:30.353Z,8.90
2019-05-20T11:52:00.969Z,14.77
2019-05-20T11:54:31.490Z,13.40
2019-05-20T11:57:02.451Z,8.40
2019-05-20T11:59:32.980Z,8.13
2019-05-20T12:02:04.181Z,10.03
2019-05-20T12:04:35.016Z,10.00
2019-05-20T12:07:08.610Z,13.53
2019-05-20T12:09:48.819Z,9.43
2019-05-20T12:12:10.716Z,9.87
2019-05-20T12:14:42.089Z,10.03
2019-05-20T12:17:13.468Z,13.33
2019-05-20T12:19:44.247Z,14.57
2019-05-20T12:22:14.756Z,15.63
2019-05-20T12:24:45.070Z,13.90
2019-05-20T12:27:15.606Z,11.90
2019-05-20T12:29:46.454Z,16.93
2019-05-20T12:32:17.903Z,8.13
2019-05-20T12:34:48.488Z,8.27
2019-05-20T12:37:19.595Z,15.17
2019-05-20T12:40:05.898Z,13.27
2019-05-20T12:42:22.645Z,9.40
2019-05-20T12:44:53.440Z,13.30
2019-05-20T12:47:24.388Z,11.27
2019-05-20T12:49:55.301Z,10.60
2019-05-20T12:52:26.271Z,10.43
2019-05-20T12:55:07.921Z,12.67
2019-05-20T12:57:30.001Z,8.80
2019-05-20T13:00:00.394Z,10.50
2019-05-20T13:02:31.475Z,12.00
2019-05-20T13:05:02.675Z,13.77
2019-05-20T13:07:34.179Z,16.27
2019-05-20T13:10:05.016Z,10.23
2019-05-20T13:12:36.030Z,11.97
2019-05-20T13:15:07.764Z,14.43
2019-05-20T13:17:42.904Z,22.13
2019-05-20T13:20:11.720Z,19.57
2019-05-20T13:22:42.285Z,16.87
2019-05-20T13:25:13.994Z,12.17
2019-05-20T13:27:44.550Z,15.50
2019-05-20T13:30:16.564Z,18.53
2019-05-20T13:32:47.918Z,15.63
2019-05-20T13:35:18.192Z,12.90
2019-05-20T13:37:48.727Z,13.30
2019-05-20T13:40:20.729Z,17.70
2019-05-20T13:42:50.873Z,17.17
2019-05-20T13:45:22.425Z,16.17
2019-05-20T13:47:52.580Z,19.70
2019-05-20T13:50:24.376Z,22.93
2019-05-20T13:52:56.081Z,17.97
2019-05-20T13:55:27.029Z,17.10
2019-05-20T13:57:57.961Z,14.63
2019-05-20T14:00:28.846Z,18.60
2019-05-20T14:02:59.411Z,15.07
2019-05-20T14:05:29.981Z,22.47
2019-05-20T14:08:00.923Z,23.00
2019-05-20T14:10:31.690Z,16.57
2019-05-20T14:13:02.606Z,18.03
2019-05-20T14:15:33.136Z,17.97
2019-05-20T14:18:03.873Z,15.13
2019-05-20T14:20:36.066Z,15.90
2019-05-20T14:23:07.616Z,23.60
2019-05-20T14:25:38.962Z,15.10
2019-05-20T14:28:09.930Z,17.03
2019-05-20T14:30:40.226Z,16.70
2019-05-20T14:33:10.975Z,18.03
2019-05-20T14:35:41.702Z,15.70
2019-05-20T14:38:12.604Z,17.17
2019-05-20T14:40:43.534Z,12.50
2019-05-20T14:43:14.485Z,16.33
2019-05-20T14:45:45.700Z,17.57
2019-05-20T14:48:16.279Z,19.50
2019-05-20T14:50:47.158Z,20.27
2019-05-20T14:53:17.703Z,17.80
2019-05-20T14:55:49.255Z,25.03
2019-05-20T14:58:19.796Z,18.00
2019-05-20T15:00:50.238Z,17.50
2019-05-20T15:03:21.011Z,18.63
2019-05-20T15:05:51.801Z,17.73
2019-05-20T15:08:23.984Z,12.27
2019-05-20T15:10:54.656Z,19.30
2019-05-20T15:13:25.657Z,16.40
2019-05-20T15:15:56.598Z,17.00
2019-05-20T15:18:27.542Z,16.97
2019-05-20T15:20:58.009Z,24.00
2019-05-20T15:23:28.224Z,20.37
2019-05-20T15:25:58.363Z,18.50
2019-05-20T15:28:28.604Z,14.40
2019-05-20T15:30:58.945Z,16.03
2019-05-20T15:33:29.675Z,15.37
2019-05-20T15:35:59.963Z,14.60
2019-05-20T15:38:30.751Z,19.20
2019-05-20T15:41:01.312Z,22.50
2019-05-20T15:43:32.272Z,21.73
2019-05-20T15:46:03.040Z,21.67
2019-05-20T15:48:34.151Z,15.80
2019-05-20T15:51:04.857Z,21.70
2019-05-20T15:53:35.375Z,19.57
2019-05-20T15:56:06.501Z,19.70
2019-05-20T15:58:39.561Z,23.33
2019-05-20T16:01:10.706Z,21.20
2019-05-20T16:03:41.668Z,20.10
2019-05-20T16:06:13.419Z,16.23
2019-05-20T16:08:44.375Z,20.70
2019-05-20T16:11:15.034Z,21.23
2019-05-20T16:13:46.007Z,22.17
2019-05-20T16:16:16.801Z,24.60
2019-05-20T16:18:47.053Z,22.97
2019-05-20T16:21:18.009Z,24.37
2019-05-20T16:23:48.661Z,19.43
2019-05-20T16:26:19.125Z,22.87
2019-05-20T16:28:50.062Z,18.90
2019-05-20T16:31:20.181Z,19.40
2019-05-20T16:33:50.678Z,15.53
2019-05-20T16:36:21.871Z,21.13
2019-05-20T16:38:51.949Z,17.57
2019-05-20T16:41:21.992Z,25.83
2019-05-20T16:43:53.241Z,19.07
2019-05-20T16:46:26.665Z,16.13
2019-05-20T16:48:57.699Z,20.27
2019-05-20T16:51:28.052Z,21.70
2019-05-20T16:54:00.735Z,25.07
2019-05-20T16:56:31.875Z,27.40
2019-05-20T16:59:02.703Z,22.27
2019-05-20T17:01:45.544Z,14.57
2019-05-20T17:04:06.143Z,16.13
2019-05-20T17:06:36.673Z,21.87
2019-05-20T17:09:07.627Z,15.30
2019-05-20T17:11:38.762Z,22.00
2019-05-20T17:14:10.704Z,24.40
2019-05-20T17:16:41.268Z,18.10
2019-05-20T17:19:11.841Z,20.77
2019-05-20T17:21:42.180Z,19.20
2019-05-20T17:24:12.664Z,18.87
2019-05-20T17:26:43.796Z,22.90
2019-05-20T17:29:14.978Z,22.20
2019-05-20T17:31:46.327Z,23.57
2019-05-20T17:34:16.467Z,18.53
2019-05-20T17:36:47.106Z,13.90
2019-05-20T17:39:18.514Z,18.90
2019-05-20T17:41:49.270Z,13.27
2019-05-20T17:44:19.592Z,19.83
2019-05-20T17:46:50.335Z,16.37
2019-05-20T17:49:20.735Z,21.00
2019-05-20T17:51:51.953Z,16.20
2019-05-20T17:54:23.375Z,25.03
2019-05-20T17:56:54.307Z,24.17
2019-05-20T17:59:26.078Z,26.37
2019-05-20T18:01:56.816Z,19.70
2019-05-20T18:04:29.141Z,21.77
2019-05-20T18:07:00.128Z,30.20
2019-05-20T18:09:32.031Z,17.50
2019-05-20T18:12:03.459Z,27.47
2019-05-20T18:14:34.404Z,20.73
2019-05-20T18:17:05.278Z,21.73
2019-05-20T18:19:36.354Z,21.13
2019-05-20T18:22:06.613Z,17.40
2019-05-20T18:24:37.099Z,23.90
2019-05-20T18:27:08.498Z,22.83
2019-05-20T18:29:38.854Z,20.90
2019-05-20T18:32:09.968Z,22.07
2019-05-20T18:34:41.157Z,23.03
2019-05-20T18:37:12.884Z,17.23
2019-05-20T18:39:43.198Z,13.70
2019-05-20T18:42:14.176Z,19.93
2019-05-20T18:44:45.709Z,25.00
2019-05-20T18:47:17.068Z,26.33
2019-05-20T18:49:47.789Z,26.03
2019-05-20T18:52:18.686Z,22.63
2019-05-20T18:54:49.234Z,16.30
2019-05-20T18:57:20.778Z,18.27
2019-05-20T18:59:52.698Z,14.17
2019-05-20T19:02:23.552Z,16.07
2019-05-20T19:04:54.910Z,22.90
2019-05-20T19:07:26.462Z,17.43
2019-05-20T19:09:56.891Z,17.40
2019-05-20T19:12:27.887Z,14.60
2019-05-20T19:14:59.092Z,21.47
2019-05-20T19:17:30.455Z,16.27
2019-05-20T19:20:01.011Z,17.13
2019-05-20T19:22:31.315Z,20.03
2019-05-20T19:25:03.594Z,14.33
2019-05-20T19:27:35.445Z,16.03
2019-05-20T19:30:11.299Z,13.00
2019-05-20T19:32:41.824Z,13.53
2019-05-20T19:35:12.780Z,16.20
2019-05-20T19:37:43.350Z,17.73
2019-05-20T19:40:14.186Z,16.70
2019-05-20T19:42:45.613Z,18.30
2019-05-20T19:45:17.167Z,24.20
2019-05-20T19:47:47.913Z,25.00
2019-05-20T19:50:18.793Z,12.20
2019-05-20T19:52:50.872Z,14.70
2019-05-20T19:55:21.761Z,15.07
2019-05-20T19:57:52.635Z,21.10
2019-05-20T20:00:23.315Z,13.07
2019-05-20T20:02:54.182Z,15.40
2019-05-20T20:05:26.352Z,18.03
2019-05-20T20:07:56.703Z,12.70
2019-05-20T20:10:27.830Z,20.60
2019-05-20T20:12:58.975Z,16.27
2019-05-20T20:15:30.139Z,20.20
2019-05-20T20:18:01.273Z,20.07
2019-05-20T20:20:32.007Z,17.00
2019-05-20T20:23:02.556Z,15.20
2019-05-20T20:25:33.285Z,15.97
2019-05-20T20:28:03.815Z,17.40
2019-05-20T20:30:34.619Z,20.83
2019-05-20T20:33:04.887Z,24.67
2019-05-20T20:35:38.391Z,18.70
2019-05-20T20:38:09.652Z,20.20
2019-05-20T20:40:40.183Z,26.40
2019-05-20T20:43:10.839Z,19.03
2019-05-20T20:45:41.441Z,20.67
2019-05-20T20:48:12.331Z,24.47
2019-05-20T20:50:43.329Z,22.13
2019-05-20T20:53:14.475Z,26.73
2019-05-20T20:55:45.431Z,19.00
2019-05-20T20:58:16.214Z,18.87
2019-05-20T21:00:47.104Z,25.10
2019-05-20T21:03:18.051Z,27.77
2019-05-20T21:05:49.200Z,28.33
2019-05-20T21:08:19.530Z,18.63
2019-05-20T21:10:50.083Z,22.63
2019-05-20T21:13:21.006Z,26.63
2019-05-20T21:15:52.161Z,23.70
2019-05-20T21:18:22.889Z,24.90
2019-05-20T21:20:53.639Z,31.40
2019-05-20T21:23:24.778Z,21.70
2019-05-20T21:25:55.675Z,20.27
2019-05-20T21:28:26.453Z,20.67
2019-05-20T21:30:57.158Z,19.90
2019-05-20T21:33:28.337Z,21.60
2019-05-20T21:35:59.698Z,28.50
2019-05-20T21:38:30.230Z,26.93
2019-05-20T21:41:01.178Z,22.40
2019-05-20T21:43:31.500Z,22.80
2019-05-20T21:46:02.038Z,32.13
2019-05-20T21:48:32.772Z,24.03
2019-05-20T21:51:03.197Z,22.60
2019-05-20T21:53:34.454Z,26.03
2019-05-20T21:56:05.817Z,26.57
2019-05-20T21:58:36.270Z,15.40
2019-05-20T22:01:06.931Z,26.00
2019-05-20T22:03:37.433Z,23.37
2019-05-20T22:06:08.106Z,25.30
2019-05-20T22:08:39.086Z,19.13
2019-05-20T22:11:09.668Z,17.60
2019-05-20T22:13:40.720Z,20.33
2019-05-20T22:16:12.141Z,29.50
2019-05-20T22:18:43.271Z,28.97
2019-05-20T22:21:16.066Z,25.83
2019-05-20T22:23:54.778Z,17.93
2019-05-20T22:26:25.936Z,23.83
2019-05-20T22:28:55.952Z,21.37
2019-05-20T22:31:44.821Z,24.10
2019-05-20T22:34:33.726Z,23.33
2019-05-20T22:37:04.616Z,26.93
2019-05-20T22:39:35.478Z,22.10
2019-05-20T22:42:06.787Z,34.23
2019-05-20T22:44:37.700Z,22.60
2019-05-20T22:47:08.353Z,28.43
2019-05-20T22:49:39.897Z,22.30
2019-05-20T22:52:10.956Z,17.97
2019-05-20T22:54:41.952Z,21.50
2019-05-20T22:57:12.931Z,29.23
2019-05-20T22:59:43.579Z,20.27
2019-05-20T23:02:14.395Z,20.30
2019-05-20T23:04:44.898Z,21.73
2019-05-20T23:07:15.078Z,23.33
2019-05-20T23:09:45.335Z,28.43
2019-05-20T23:12:16.292Z,23.13
2019-05-20T23:14:48.467Z,26.63
2019-05-20T23:17:19.607Z,21.67
2019-05-20T23:19:49.705Z,27.40
2019-05-20T23:22:20.228Z,20.60
2019-05-20T23:24:50.389Z,23.40
2019-05-20T23:27:21.349Z,25.97
2019-05-20T23:29:52.083Z,28.23
2019-05-20T23:32:22.981Z,26.23
2019-05-20T23:34:53.493Z,19.00
2019-05-20T23:37:24.095Z,26.10
2019-05-20T23:39:53.830Z,17.67
2019-05-20T23:42:24.559Z,19.73
2019-05-20T23:44:54.874Z,19.23
2019-05-20T23:47:25.593Z,17.37
2019-05-20T23:49:55.741Z,29.27
2019-05-20T23:52:26.676Z,15.30
2019-05-20T23:54:57.831Z,27.87
2019-05-20T23:57:28.313Z,20.63
2019-05-20T23:59:59.510Z,24.07
